createdAt,value
2023-03-16T00:00:22.037Z,61.83
2023-03-16T00:02:49.805Z,67.50
2023-03-16T00:05:17.929Z,61.57
2023-03-16T00:07:46.958Z,65.50
2023-03-16T00:10:14.738Z,65.03
2023-03-16T00:12:43.563Z,62.30
2023-03-16T00:15:11.792Z,59.43
2023-03-16T00:17:39.435Z,58.93
2023-03-16T00:20:08.334Z,63.00
2023-03-16T00:22:36.106Z,55.90
2023-03-16T00:25:05.886Z,59.00
2023-03-16T00:27:33.561Z,60.67
2023-03-16T00:30:03.065Z,67.33
2023-03-16T00:32:34.192Z,59.30
2023-03-16T00:35:02.859Z,60.37
2023-03-16T00:37:32.736Z,61.83
2023-03-16T00:40:01.229Z,53.03
2023-03-16T00:42:34.050Z,57.83
2023-03-16T00:45:02.154Z,56.77
2023-03-16T00:47:31.744Z,61.97
2023-03-16T00:50:00.945Z,61.43
2023-03-16T00:52:30.050Z,56.10
2023-03-16T00:54:58.780Z,56.73
2023-03-16T00:57:30.118Z,56.03
2023-03-16T01:00:00.247Z,51.30
2023-03-16T01:02:28.347Z,56.00
2023-03-16T01:04:56.285Z,56.93
2023-03-16T01:07:24.046Z,54.90
2023-03-16T01:09:51.813Z,54.60
2023-03-16T01:12:20.531Z,54.00
2023-03-16T01:14:48.697Z,63.17
2023-03-16T01:17:19.117Z,60.33
2023-03-16T01:19:47.401Z,57.17
2023-03-16T01:22:16.303Z,57.50
2023-03-16T01:24:45.294Z,57.23
2023-03-16T01:27:14.706Z,61.33
2023-03-16T01:29:44.338Z,54.60
2023-03-16T01:32:13.048Z,59.60
2023-03-16T01:34:42.478Z,56.70
2023-03-16T01:37:12.330Z,59.37
2023-03-16T01:39:51.080Z,61.20
2023-03-16T01:42:18.892Z,60.67
2023-03-16T01:44:51.722Z,61.60
2023-03-16T01:47:19.430Z,55.13
2023-03-16T01:49:48.556Z,59.30
2023-03-16T01:52:20.133Z,56.50
2023-03-16T01:54:51.035Z,59.23
2023-03-16T01:57:20.910Z,59.83
2023-03-16T01:59:53.661Z,57.50
2023-03-16T02:02:25.020Z,58.03
2023-03-16T02:04:59.653Z,56.23
2023-03-16T02:07:29.374Z,52.87
2023-03-16T02:10:02.394Z,48.07
2023-03-16T02:12:30.991Z,55.30
2023-03-16T02:15:00.908Z,54.17
2023-03-16T02:17:31.910Z,55.93
2023-03-16T02:20:18.119Z,58.53
2023-03-16T02:22:49.904Z,51.57
2023-03-16T02:25:19.585Z,49.67
2023-03-16T02:27:57.880Z,56.93
2023-03-16T02:30:27.712Z,55.50
2023-03-16T02:33:05.588Z,56.17
2023-03-16T02:35:34.061Z,56.03
2023-03-16T02:38:03.280Z,54.67
2023-03-16T02:40:36.439Z,52.17
2023-03-16T02:43:10.824Z,58.10
2023-03-16T02:45:48.045Z,55.03
2023-03-16T02:48:23.700Z,58.77
2023-03-16T02:50:54.083Z,54.10
2023-03-16T02:53:21.848Z,55.47
2023-03-16T02:55:49.760Z,57.13
2023-03-16T02:58:18.576Z,53.90
2023-03-16T03:00:48.943Z,55.90
2023-03-16T03:03:18.338Z,60.90
2023-03-16T03:05:46.007Z,54.03
2023-03-16T03:08:14.667Z,57.90
2023-03-16T03:10:42.622Z,61.67
2023-03-16T03:13:12.239Z,53.97
2023-03-16T03:15:40.876Z,55.43
2023-03-16T03:18:14.609Z,56.57
2023-03-16T03:20:42.646Z,53.60
2023-03-16T03:23:11.277Z,57.67
2023-03-16T03:25:38.957Z,56.40
2023-03-16T03:28:06.735Z,60.40
2023-03-16T03:30:34.574Z,56.80
2023-03-16T03:33:02.778Z,52.87
2023-03-16T03:35:32.679Z,59.13
2023-03-16T03:38:00.433Z,55.40
2023-03-16T03:40:29.793Z,58.47
2023-03-16T03:43:01.395Z,58.70
2023-03-16T03:45:30.764Z,48.23
2023-03-16T03:47:58.583Z,50.83
2023-03-16T03:50:26.826Z,57.60
2023-03-16T03:53:20.907Z,54.23
2023-03-16T03:56:11.426Z,51.20
2023-03-16T03:58:40.113Z,55.87
2023-03-16T04:01:07.909Z,59.00
2023-03-16T04:03:35.656Z,64.43
2023-03-16T04:06:03.480Z,56.90
2023-03-16T04:08:33.765Z,56.20
2023-03-16T04:11:01.678Z,62.10
2023-03-16T04:13:29.893Z,61.77
2023-03-16T04:15:58.972Z,61.93
2023-03-16T04:18:30.375Z,57.33
2023-03-16T04:20:58.075Z,61.47
2023-03-16T04:23:26.704Z,62.63
2023-03-16T04:25:56.159Z,55.97
2023-03-16T04:28:26.463Z,54.27
2023-03-16T04:30:54.875Z,58.00
2023-03-16T04:33:34.672Z,67.57
2023-03-16T04:36:03.390Z,59.93
2023-03-16T04:38:33.627Z,60.73
2023-03-16T04:41:04.979Z,56.73
2023-03-16T04:43:36.384Z,59.83
2023-03-16T04:46:11.004Z,58.17
2023-03-16T04:48:39.281Z,57.03
2023-03-16T04:51:07.613Z,65.53
2023-03-16T04:53:39.224Z,68.67
2023-03-16T04:56:19.275Z,60.37
2023-03-16T04:58:51.833Z,59.57
2023-03-16T05:01:21.982Z,58.47
2023-03-16T05:03:52.808Z,56.17
2023-03-16T05:06:21.391Z,58.30
2023-03-16T05:08:49.151Z,57.53
2023-03-16T05:11:19.233Z,62.87
2023-03-16T05:13:54.741Z,60.57
2023-03-16T05:16:22.492Z,63.00
2023-03-16T05:18:52.811Z,58.63
2023-03-16T05:21:20.496Z,60.07
2023-03-16T05:23:58.337Z,56.63
2023-03-16T05:26:27.339Z,63.33
2023-03-16T05:28:56.233Z,57.63
2023-03-16T05:31:27.238Z,60.40
2023-03-16T05:33:59.240Z,63.13
2023-03-16T05:36:26.919Z,61.00
2023-03-16T05:38:59.322Z,64.67
2023-03-16T05:41:38.926Z,58.33
2023-03-16T05:44:33.441Z,54.43
2023-03-16T05:47:18.624Z,55.57
2023-03-16T05:49:51.407Z,54.63
2023-03-16T05:52:40.322Z,50.83
2023-03-16T05:55:17.439Z,46.70
2023-03-16T05:57:51.087Z,58.70
2023-03-16T06:00:20.741Z,62.77
2023-03-16T06:02:57.072Z,56.57
2023-03-16T06:05:30.375Z,58.47
2023-03-16T06:07:58.305Z,61.40
2023-03-16T06:10:27.906Z,57.57
2023-03-16T06:12:59.509Z,67.60
2023-03-16T06:15:30.364Z,54.10
2023-03-16T06:18:00.826Z,62.57
2023-03-16T06:20:29.312Z,65.80
2023-03-16T06:22:57.781Z,66.17
2023-03-16T06:25:26.398Z,64.70
2023-03-16T06:27:55.188Z,60.37
2023-03-16T06:30:24.556Z,73.53
2023-03-16T06:32:52.848Z,78.47
2023-03-16T06:35:21.245Z,86.07
2023-03-16T06:38:05.010Z,92.47
2023-03-16T06:40:55.972Z,84.40
2023-03-16T06:43:24.614Z,89.03
2023-03-16T06:45:54.362Z,103.07
2023-03-16T06:48:23.721Z,100.47
2023-03-16T06:50:51.583Z,115.67
2023-03-16T06:53:25.956Z,113.30
2023-03-16T06:55:54.898Z,119.77
2023-03-16T06:58:22.997Z,115.70
2023-03-16T07:00:51.704Z,117.53
2023-03-16T07:03:21.867Z,117.23
2023-03-16T07:05:55.642Z,115.17
2023-03-16T07:08:24.249Z,121.43
2023-03-16T07:10:52.295Z,116.63
2023-03-16T07:13:20.204Z,126.17
2023-03-16T07:15:52.140Z,120.50
2023-03-16T07:18:22.617Z,133.10
2023-03-16T07:20:50.566Z,127.87
2023-03-16T07:23:18.222Z,137.60
2023-03-16T07:25:46.089Z,146.80
2023-03-16T07:28:16.657Z,145.27
2023-03-16T07:30:56.675Z,142.73
2023-03-16T07:33:34.663Z,147.83
2023-03-16T07:36:06.455Z,136.90
2023-03-16T07:38:39.927Z,136.27
2023-03-16T07:41:07.741Z,135.23
2023-03-16T07:43:36.495Z,133.97
2023-03-16T07:46:04.228Z,134.80
2023-03-16T07:48:33.471Z,139.47
2023-03-16T07:51:03.549Z,137.33
2023-03-16T07:53:32.129Z,138.87
2023-03-16T07:56:14.309Z,145.50
2023-03-16T07:58:45.361Z,140.47
2023-03-16T08:01:13.156Z,143.33
2023-03-16T08:03:42.241Z,141.50
2023-03-16T08:06:10.764Z,146.60
2023-03-16T08:08:39.103Z,141.97
2023-03-16T08:11:07.592Z,146.10
2023-03-16T08:13:46.916Z,137.80
2023-03-16T08:16:14.983Z,147.40
2023-03-16T08:18:46.378Z,143.07
2023-03-16T08:21:15.870Z,142.50
2023-03-16T08:23:49.327Z,143.93
2023-03-16T08:26:19.825Z,142.10
2023-03-16T08:28:51.798Z,127.70
2023-03-16T08:31:21.207Z,127.03
2023-03-16T08:34:08.316Z,125.90
2023-03-16T08:36:43.703Z,123.73
2023-03-16T08:39:13.166Z,129.87
2023-03-16T08:41:46.005Z,120.40
2023-03-16T08:44:29.640Z,132.70
2023-03-16T08:46:57.471Z,129.47
2023-03-16T08:49:27.214Z,137.17
2023-03-16T08:52:03.980Z,145.03
2023-03-16T08:54:32.516Z,130.57
2023-03-16T08:57:00.416Z,126.40
2023-03-16T08:59:30.524Z,134.27
2023-03-16T09:01:58.688Z,134.13
2023-03-16T09:04:28.303Z,138.17
2023-03-16T09:07:07.926Z,137.30
2023-03-16T09:09:36.500Z,130.13
2023-03-16T09:12:05.918Z,137.77
2023-03-16T09:14:33.885Z,142.40
2023-03-16T09:17:01.513Z,142.30
2023-03-16T09:19:44.278Z,142.77
2023-03-16T09:22:18.322Z,142.40
2023-03-16T09:24:46.008Z,151.87
2023-03-16T09:27:13.712Z,149.70
2023-03-16T09:29:42.535Z,172.67
2023-03-16T09:32:11.108Z,168.47
2023-03-16T09:34:40.267Z,181.17
2023-03-16T09:37:08.155Z,179.57
2023-03-16T09:39:37.084Z,180.77
2023-03-16T09:42:14.923Z,187.37
2023-03-16T09:44:53.662Z,183.97
2023-03-16T09:47:27.225Z,193.50
2023-03-16T09:49:58.132Z,193.60
2023-03-16T09:52:33.563Z,202.23
2023-03-16T09:55:06.368Z,218.83
2023-03-16T09:57:36.764Z,210.97
2023-03-16T10:00:17.207Z,196.07
2023-03-16T10:03:06.316Z,202.93
2023-03-16T10:05:36.827Z,203.63
2023-03-16T10:08:13.061Z,197.53
2023-03-16T10:10:56.647Z,188.87
2023-03-16T10:13:32.234Z,205.57
2023-03-16T10:16:02.937Z,201.95
2023-03-16T10:18:34.880Z,220.38
2023-03-16T10:21:04.474Z,221.73
2023-03-16T10:23:34.298Z,216.77
2023-03-16T10:26:12.953Z,207.95
2023-03-16T10:28:42.335Z,194.73
2023-03-16T10:31:12.116Z,185.85
2023-03-16T10:33:40.450Z,202.27
2023-03-16T10:36:30.465Z,196.60
2023-03-16T10:38:59.675Z,170.95
2023-03-16T10:41:31.199Z,172.25
2023-03-16T10:44:07.104Z,198.55
2023-03-16T10:46:39.520Z,183.85
2023-03-16T10:49:20.495Z,185.85
2023-03-16T10:51:50.153Z,182.38
2023-03-16T10:54:26.051Z,179.73
2023-03-16T10:56:53.728Z,183.05
2023-03-16T10:59:30.259Z,173.60
2023-03-16T11:01:58.226Z,169.05
2023-03-16T11:04:26.554Z,182.70
2023-03-16T11:06:57.602Z,174.68
2023-03-16T11:09:28.101Z,171.93
2023-03-16T11:11:55.740Z,175.98
2023-03-16T11:14:28.224Z,170.90
2023-03-16T11:17:04.259Z,156.50
2023-03-16T11:19:35.616Z,154.70
2023-03-16T11:22:09.522Z,149.10
2023-03-16T11:24:46.603Z,150.48
2023-03-16T11:27:23.264Z,163.05
2023-03-16T11:30:05.470Z,157.77
2023-03-16T11:32:37.260Z,148.93
2023-03-16T11:35:14.149Z,137.90
2023-03-16T11:37:56.852Z,135.25
2023-03-16T11:40:40.097Z,128.98
2023-03-16T11:43:21.707Z,134.65
2023-03-16T11:46:03.614Z,129.68
2023-03-16T11:48:40.243Z,117.55
2023-03-16T11:51:16.653Z,116.20
2023-03-16T11:54:07.724Z,102.60
2023-03-16T11:56:41.000Z,108.68
2023-03-16T11:59:35.984Z,111.28
2023-03-16T12:02:21.316Z,110.38
2023-03-16T12:05:11.564Z,111.32
2023-03-16T12:07:52.591Z,108.45
2023-03-16T12:10:27.093Z,113.28
2023-03-16T12:13:03.186Z,105.25
2023-03-16T12:15:38.369Z,105.38
2023-03-16T12:18:15.703Z,104.10
2023-03-16T12:20:51.414Z,109.60
2023-03-16T12:23:23.276Z,100.28
2023-03-16T12:25:54.362Z,97.80
2023-03-16T12:28:26.584Z,107.60
2023-03-16T12:31:09.876Z,90.82
2023-03-16T12:33:49.798Z,97.15
2023-03-16T12:36:45.386Z,89.20
2023-03-16T12:39:18.598Z,90.45
2023-03-16T12:41:59.559Z,93.38
2023-03-16T12:44:36.603Z,92.57
2023-03-16T12:47:15.259Z,94.50
2023-03-16T12:49:43.342Z,93.88
2023-03-16T12:52:13.497Z,87.22
2023-03-16T12:54:51.673Z,95.13
2023-03-16T12:57:25.820Z,88.63
2023-03-16T12:59:58.546Z,80.53
2023-03-16T13:02:30.133Z,89.80
2023-03-16T13:05:01.959Z,85.10
2023-03-16T13:07:33.349Z,82.90
2023-03-16T13:10:04.546Z,94.68
2023-03-16T13:12:37.057Z,83.40
2023-03-16T13:15:26.600Z,89.63
2023-03-16T13:18:06.462Z,80.95
2023-03-16T13:20:35.825Z,77.53
2023-03-16T13:23:23.151Z,77.68
2023-03-16T13:26:13.999Z,79.57
2023-03-16T13:28:46.998Z,84.25
2023-03-16T13:31:25.173Z,89.30
2023-03-16T13:33:55.606Z,89.97
2023-03-16T13:36:24.246Z,86.25
2023-03-16T13:39:05.465Z,75.13
2023-03-16T13:41:33.099Z,81.85
2023-03-16T13:44:02.092Z,78.00
2023-03-16T13:46:31.703Z,75.65
2023-03-16T13:49:01.051Z,78.00
2023-03-16T13:51:32.013Z,78.43
2023-03-16T13:53:59.736Z,67.90
2023-03-16T13:56:29.337Z,61.97
2023-03-16T13:58:59.384Z,66.68
2023-03-16T14:01:31.983Z,71.07
2023-03-16T14:04:05.607Z,72.15
2023-03-16T14:06:35.235Z,70.57
2023-03-16T14:09:06.292Z,73.13
2023-03-16T14:11:34.043Z,79.82
2023-03-16T14:14:02.111Z,74.20
2023-03-16T14:16:32.031Z,70.00
2023-03-16T14:19:03.714Z,67.70
2023-03-16T14:21:34.915Z,68.32
2023-03-16T14:24:05.312Z,68.53
2023-03-16T14:26:41.685Z,74.28
2023-03-16T14:29:19.398Z,76.35
2023-03-16T14:31:49.550Z,76.60
2023-03-16T14:34:30.120Z,72.57
2023-03-16T14:37:08.761Z,80.55
2023-03-16T14:39:40.566Z,74.38
2023-03-16T14:42:16.059Z,71.47
2023-03-16T14:44:43.693Z,71.40
2023-03-16T14:47:22.574Z,79.03
2023-03-16T14:49:50.371Z,80.25
2023-03-16T14:52:25.377Z,81.43
2023-03-16T14:54:54.936Z,76.90
2023-03-16T14:57:23.023Z,76.25
2023-03-16T14:59:51.104Z,68.78
2023-03-16T15:02:24.069Z,71.28
2023-03-16T15:04:52.544Z,66.75
2023-03-16T15:07:25.015Z,64.30
2023-03-16T15:09:55.487Z,72.35
2023-03-16T15:12:24.994Z,60.63
2023-03-16T15:15:06.688Z,60.85
2023-03-16T15:17:35.720Z,55.70
2023-03-16T15:20:05.188Z,56.90
2023-03-16T15:22:35.457Z,65.32
2023-03-16T15:25:19.374Z,70.82
2023-03-16T15:27:47.966Z,67.25
2023-03-16T15:30:17.773Z,68.20
2023-03-16T15:32:47.050Z,71.80
2023-03-16T15:35:14.839Z,78.93
2023-03-16T15:37:42.691Z,79.57
2023-03-16T15:40:18.740Z,75.80
2023-03-16T15:42:46.988Z,78.38
2023-03-16T15:45:18.553Z,81.25
2023-03-16T15:47:48.354Z,81.85
2023-03-16T15:50:17.890Z,88.28
2023-03-16T15:52:48.935Z,86.32
2023-03-16T15:55:22.621Z,82.22
2023-03-16T15:57:57.545Z,83.47
2023-03-16T16:00:31.742Z,87.15
2023-03-16T16:03:02.042Z,83.80
2023-03-16T16:05:30.635Z,86.93
2023-03-16T16:07:58.653Z,90.93
2023-03-16T16:10:28.579Z,89.07
2023-03-16T16:12:57.906Z,88.00
2023-03-16T16:15:29.355Z,92.68
2023-03-16T16:18:19.820Z,93.38
2023-03-16T16:20:46.934Z,82.72
2023-03-16T16:23:14.673Z,87.82
2023-03-16T16:25:43.452Z,87.65
2023-03-16T16:28:16.405Z,83.32
2023-03-16T16:30:44.978Z,83.57
2023-03-16T16:33:25.922Z,84.28
2023-03-16T16:35:56.615Z,81.70
2023-03-16T16:38:24.984Z,79.97
2023-03-16T16:40:54.428Z,78.82
2023-03-16T16:43:32.864Z,85.18
2023-03-16T16:46:01.546Z,76.45
2023-03-16T16:48:33.308Z,81.22
2023-03-16T16:51:02.552Z,81.38
2023-03-16T16:53:30.972Z,84.63
2023-03-16T16:55:58.681Z,86.38
2023-03-16T16:58:26.355Z,86.95
2023-03-16T17:00:56.757Z,96.75
2023-03-16T17:03:26.997Z,96.63
2023-03-16T17:05:55.995Z,94.18
2023-03-16T17:08:25.740Z,97.45
2023-03-16T17:10:54.819Z,99.53
2023-03-16T17:13:27.784Z,102.47
2023-03-16T17:15:55.895Z,98.25
2023-03-16T17:18:24.330Z,109.78
2023-03-16T17:20:52.384Z,105.90
2023-03-16T17:23:39.414Z,111.77
2023-03-16T17:26:14.732Z,107.60
2023-03-16T17:28:46.471Z,115.43
2023-03-16T17:31:20.247Z,125.23
2023-03-16T17:33:47.904Z,112.97
2023-03-16T17:36:18.170Z,125.40
2023-03-16T17:38:47.846Z,129.33
2023-03-16T17:41:23.075Z,123.63
2023-03-16T17:43:51.329Z,125.73
2023-03-16T17:46:21.361Z,136.57
2023-03-16T17:48:50.822Z,133.30
2023-03-16T17:51:21.044Z,133.23
2023-03-16T17:53:50.307Z,138.10
2023-03-16T17:56:20.437Z,145.33
2023-03-16T17:58:51.122Z,141.20
2023-03-16T18:01:21.454Z,149.97
2023-03-16T18:03:49.174Z,151.60
2023-03-16T18:06:20.742Z,148.50
2023-03-16T18:08:50.388Z,145.93
2023-03-16T18:11:21.572Z,147.10
2023-03-16T18:13:50.548Z,144.07
2023-03-16T18:16:23.119Z,142.63
2023-03-16T18:19:00.744Z,138.57
2023-03-16T18:21:28.583Z,151.17
2023-03-16T18:23:57.911Z,140.67
2023-03-16T18:26:26.293Z,155.07
2023-03-16T18:28:55.421Z,153.83
2023-03-16T18:31:25.686Z,138.17
2023-03-16T18:33:55.966Z,157.63
2023-03-16T18:36:28.144Z,141.83
2023-03-16T18:38:59.447Z,145.17
2023-03-16T18:41:29.136Z,150.27
2023-03-16T18:44:00.365Z,141.37
2023-03-16T18:46:31.300Z,146.00
2023-03-16T18:49:01.935Z,145.77
2023-03-16T18:51:31.111Z,147.93
2023-03-16T18:54:00.139Z,146.93
2023-03-16T18:56:29.434Z,150.40
2023-03-16T18:58:57.829Z,155.83
2023-03-16T19:01:28.282Z,140.13
2023-03-16T19:03:57.734Z,138.23
2023-03-16T19:06:30.381Z,153.07
2023-03-16T19:09:07.622Z,143.77
2023-03-16T19:11:39.833Z,138.07
2023-03-16T19:14:26.737Z,146.33
2023-03-16T19:17:26.304Z,143.07
2023-03-16T19:23:48.746Z,126.27
2023-03-16T19:26:18.088Z,148.67
2023-03-16T19:29:25.649Z,137.83
2023-03-16T19:40:29.382Z,136.87
2023-03-16T19:50:44.243Z,131.87
2023-03-16T19:53:17.888Z,136.30
2023-03-16T19:55:47.856Z,140.97
2023-03-16T19:58:21.832Z,145.40
2023-03-16T20:00:49.596Z,148.90
2023-03-16T20:03:18.640Z,145.40
2023-03-16T20:05:46.256Z,152.77
2023-03-16T20:08:21.437Z,143.03
2023-03-16T20:10:49.554Z,148.70
2023-03-16T20:13:18.287Z,153.77
2023-03-16T20:15:46.456Z,141.77
2023-03-16T20:18:17.137Z,156.20
2023-03-16T20:20:47.218Z,137.83
2023-03-16T20:23:19.513Z,143.67
2023-03-16T20:25:48.460Z,144.23
2023-03-16T20:28:20.588Z,154.53
2023-03-16T20:30:49.604Z,139.30
2023-03-16T20:33:19.948Z,148.37
2023-03-16T20:35:50.825Z,143.67
2023-03-16T20:38:18.464Z,149.53
2023-03-16T20:40:49.195Z,151.87
2023-03-16T20:43:23.639Z,143.40
2023-03-16T20:45:51.519Z,140.40
2023-03-16T20:48:20.107Z,151.43
2023-03-16T20:50:49.742Z,142.10
2023-03-16T20:53:17.361Z,151.13
2023-03-16T20:55:45.152Z,139.93
2023-03-16T20:58:21.733Z,145.63
2023-03-16T21:00:51.133Z,125.47
2023-03-16T21:03:22.309Z,142.30
2023-03-16T21:05:52.653Z,133.07
2023-03-16T21:08:20.716Z,134.97
2023-03-16T21:10:51.108Z,135.87
2023-03-16T21:13:21.378Z,140.37
2023-03-16T21:15:50.630Z,137.17
2023-03-16T21:18:21.486Z,146.20
2023-03-16T21:20:52.934Z,142.53
2023-03-16T21:23:23.222Z,142.80
2023-03-16T21:25:54.692Z,144.10
2023-03-16T21:28:24.806Z,136.40
2023-03-16T21:30:54.614Z,142.47
2023-03-16T21:33:29.798Z,137.80
2023-03-16T21:36:00.307Z,131.53
2023-03-16T21:38:29.708Z,131.60
2023-03-16T21:40:57.730Z,142.00
2023-03-16T21:43:26.684Z,131.73
2023-03-16T21:45:55.029Z,126.77
2023-03-16T21:48:24.790Z,129.23
2023-03-16T21:50:53.778Z,127.77
2023-03-16T21:53:24.927Z,124.97
2023-03-16T21:55:53.309Z,134.27
2023-03-16T21:58:22.126Z,125.13
2023-03-16T22:00:51.721Z,130.00
2023-03-16T22:03:37.764Z,116.83
2023-03-16T22:06:15.662Z,124.70
2023-03-16T22:08:44.722Z,116.03
2023-03-16T22:11:17.217Z,116.67
2023-03-16T22:13:46.376Z,118.60
2023-03-16T22:16:17.142Z,109.80
2023-03-16T22:18:46.966Z,101.80
2023-03-16T22:21:33.308Z,112.47
2023-03-16T22:24:05.210Z,111.23
2023-03-16T22:26:33.140Z,113.20
2023-03-16T22:29:01.804Z,109.63
2023-03-16T22:31:33.824Z,106.87
2023-03-16T22:34:02.616Z,105.80
2023-03-16T22:36:32.809Z,112.17
2023-03-16T22:39:12.211Z,109.83
2023-03-16T22:41:40.050Z,103.10
2023-03-16T22:44:17.944Z,111.60
2023-03-16T22:46:45.575Z,107.93
2023-03-16T22:49:21.135Z,97.83
2023-03-16T22:51:50.529Z,117.23
2023-03-16T22:54:23.076Z,107.33
2023-03-16T22:56:51.276Z,113.43
2023-03-16T22:59:22.031Z,106.10
2023-03-16T23:01:51.153Z,99.83
2023-03-16T23:04:20.876Z,105.63
2023-03-16T23:06:49.948Z,105.37
2023-03-16T23:09:20.710Z,98.83
2023-03-16T23:11:52.331Z,101.43
2023-03-16T23:14:23.111Z,103.97
2023-03-16T23:16:52.435Z,98.50
2023-03-16T23:19:25.205Z,104.27
2023-03-16T23:21:54.757Z,101.63
2023-03-16T23:24:24.173Z,99.20
2023-03-16T23:26:52.999Z,101.10
2023-03-16T23:29:21.617Z,98.37
2023-03-16T23:31:49.612Z,106.90
2023-03-16T23:34:21.274Z,108.33
2023-03-16T23:36:50.180Z,102.03
2023-03-16T23:39:17.960Z,102.73
2023-03-16T23:41:49.356Z,102.87
2023-03-16T23:44:20.223Z,105.43
2023-03-16T23:46:47.894Z,100.77
2023-03-16T23:49:26.186Z,106.97
2023-03-16T23:51:56.643Z,106.03
2023-03-16T23:54:26.034Z,96.60
2023-03-16T23:56:55.141Z,101.20
2023-03-16T23:59:23.462Z,99.90
